Time;durP1;ratioP1;P1;durP2;ratioP2;P2;SDS_P1;SDS_P2;PMS_P1;PMS_P2;Temp;Humidity;BMP_temperature;BMP_pressure;BME280_temperature;BME280_humidity;BME280_pressure;Samples;Min_cycle;Max_cycle;Signal;HPM_P1;HPM_P2
2023/05/18 00:02:00;;;;;;;7.53;3.05;;;;;;;;;;5016445;28;20677;-70
2023/05/18 00:04:28;;;;;;;13.45;4.65;;;;;;;;;;5016709;28;20646;-70
2023/05/18 00:06:57;;;;;;;18.27;3.80;;;;;;;;;;5016612;28;20199;-70
2023/05/18 00:09:24;;;;;;;8.52;3.70;;;;;;;;;;5016678;28;20201;-70
2023/05/18 00:11:51;;;;;;;6.60;3.10;;;;;;;;;;5016588;28;20200;-70
2023/05/18 00:14:19;;;;;;;5.20;2.95;;;;;;;;;;5017283;28;20278;-70
2023/05/18 00:16:46;;;;;;;9.32;3.30;;;;;;;;;;5016128;28;20661;-70
2023/05/18 00:19:14;;;;;;;8.45;2.85;;;;;;;;;;5016883;28;20202;-70
2023/05/18 00:21:42;;;;;;;5.00;3.15;;;;;;;;;;5016343;28;20715;-70
2023/05/18 00:24:10;;;;;;;6.20;3.45;;;;;;;;;;5016139;28;20204;-70
2023/05/18 00:26:38;;;;;;;8.77;3.22;;;;;;;;;;5016280;28;20294;-70
2023/05/18 00:29:05;;;;;;;6.60;3.50;;;;;;;;;;5015988;28;20295;-70
2023/05/18 00:31:35;;;;;;;12.18;3.92;;;;;;;;;;5015714;28;20196;-70
2023/05/18 00:34:02;;;;;;;16.58;3.83;;;;;;;;;;5016201;28;20192;-69
2023/05/18 00:36:30;;;;;;;5.45;3.10;;;;;;;;;;5016036;28;20199;-70
2023/05/18 00:38:58;;;;;;;11.57;4.00;;;;;;;;;;5015925;28;20228;-69
2023/05/18 00:41:26;;;;;;;8.25;3.40;;;;;;;;;;5016158;28;20203;-69
2023/05/18 00:43:53;;;;;;;14.45;3.55;;;;;;;;;;5015975;28;20250;-70
2023/05/18 00:46:20;;;;;;;7.20;3.33;;;;;;;;;;5015941;28;20235;-70
2023/05/18 00:48:47;;;;;;;8.73;3.78;;;;;;;;;;5015839;28;20192;-69
2023/05/18 00:51:15;;;;;;;5.75;3.60;;;;;;;;;;5015653;28;20200;-70
2023/05/18 00:53:42;;;;;;;7.70;3.38;;;;;;;;;;5015924;28;20206;-70
2023/05/18 00:56:12;;;;;;;8.10;4.32;;;;;;;;;;5016083;28;20214;-70
2023/05/18 00:58:39;;;;;;;13.43;4.25;;;;;;;;;;5015673;28;20274;-70
2023/05/18 01:01:08;;;;;;;8.50;4.07;;;;;;;;;;5015393;28;20254;-70
2023/05/18 01:03:36;;;;;;;10.75;4.07;;;;;;;;;;5015583;28;20204;-70
2023/05/18 01:06:04;;;;;;;10.32;3.83;;;;;;;;;;5015537;28;20248;-70
2023/05/18 01:08:32;;;;;;;7.90;3.75;;;;;;;;;;5015828;28;20192;-70
2023/05/18 01:11:06;;;;;;;6.88;3.80;;;;;;;;;;5015205;28;20679;-70
2023/05/18 01:13:39;;;;;;;4.90;3.60;;;;;;;;;;5015808;28;20189;-70
2023/05/18 01:16:08;;;;;;;7.90;4.05;;;;;;;;;;5015815;28;20199;-70
2023/05/18 01:18:38;;;;;;;8.15;4.18;;;;;;;;;;5015513;28;20196;-70
2023/05/18 01:21:12;;;;;;;8.82;3.90;;;;;;;;;;5015564;28;20206;-70
2023/05/18 01:23:54;;;;;;;6.32;3.75;;;;;;;;;;5014999;28;20216;-70
2023/05/18 01:26:28;;;;;;;13.43;4.75;;;;;;;;;;5015516;28;20212;-70
2023/05/18 01:28:56;;;;;;;12.75;5.30;;;;;;;;;;5014892;28;20216;-70
2023/05/18 01:31:23;;;;;;;12.07;3.85;;;;;;;;;;5015234;28;20192;-70
2023/05/18 01:33:51;;;;;;;15.13;4.32;;;;;;;;;;5014784;28;20206;-70
2023/05/18 01:36:18;;;;;;;9.07;4.03;;;;;;;;;;5014682;28;20656;-70
2023/05/18 01:38:45;;;;;;;9.30;3.40;;;;;;;;;;5015039;28;20224;-70
2023/05/18 01:41:15;;;;;;;7.97;3.90;;;;;;;;;;5015082;28;20196;-70
2023/05/18 01:43:47;;;;;;;10.95;4.22;;;;;;;;;;5014413;28;20283;-70
2023/05/18 01:46:18;;;;;;;8.32;4.57;;;;;;;;;;5015040;28;20266;-70
2023/05/18 01:48:49;;;;;;;7.50;4.38;;;;;;;;;;5015124;28;20195;-70
2023/05/18 01:51:17;;;;;;;8.93;4.00;;;;;;;;;;5014817;28;20218;-70
2023/05/18 01:53:47;;;;;;;4.97;3.38;;;;;;;;;;5014769;28;20204;-70
2023/05/18 01:56:15;;;;;;;7.00;3.63;;;;;;;;;;5014426;28;20210;-69
2023/05/18 01:58:43;;;;;;;6.03;3.58;;;;;;;;;;5014866;28;20202;-69
2023/05/18 02:01:11;;;;;;;6.50;3.30;;;;;;;;;;5014798;28;20201;-69
2023/05/18 02:03:38;;;;;;;9.02;4.80;;;;;;;;;;5014615;28;20196;-69
2023/05/18 02:06:06;;;;;;;11.98;4.43;;;;;;;;;;5014289;28;20233;-70
2023/05/18 02:08:33;;;;;;;10.25;3.95;;;;;;;;;;5014642;28;20293;-69
2023/05/18 02:11:00;;;;;;;9.10;4.28;;;;;;;;;;5014504;28;20250;-69
2023/05/18 02:13:27;;;;;;;12.88;4.90;;;;;;;;;;5014081;28;20792;-69
2023/05/18 02:15:54;;;;;;;8.95;4.90;;;;;;;;;;5014376;28;20231;-69
2023/05/18 02:18:25;;;;;;;10.32;3.80;;;;;;;;;;5014456;28;20204;-69
2023/05/18 02:20:58;;;;;;;10.05;3.83;;;;;;;;;;5014034;28;20194;-69
2023/05/18 02:23:26;;;;;;;11.43;4.10;;;;;;;;;;5013831;28;20712;-69
2023/05/18 02:25:54;;;;;;;12.48;3.72;;;;;;;;;;5014028;28;20223;-69
2023/05/18 02:28:21;;;;;;;5.45;4.00;;;;;;;;;;5013790;28;20658;-69
2023/05/18 02:30:48;;;;;;;10.43;4.10;;;;;;;;;;5014056;28;20192;-71
2023/05/18 02:33:16;;;;;;;11.60;4.13;;;;;;;;;;5014035;28;20291;-72
2023/05/18 02:35:45;;;;;;;6.00;4.47;;;;;;;;;;5013022;28;20249;-70
2023/05/18 02:38:12;;;;;;;11.45;4.60;;;;;;;;;;5012928;28;20246;-71
2023/05/18 02:40:39;;;;;;;9.05;4.00;;;;;;;;;;5012916;28;20210;-70
2023/05/18 02:43:06;;;;;;;6.80;3.70;;;;;;;;;;5013052;28;20203;-70
2023/05/18 02:45:34;;;;;;;13.13;4.45;;;;;;;;;;5013047;28;20204;-73
2023/05/18 02:48:01;;;;;;;8.75;3.72;;;;;;;;;;5013206;28;20206;-70
2023/05/18 02:50:28;;;;;;;9.43;4.13;;;;;;;;;;5013136;28;20199;-73
2023/05/18 02:52:57;;;;;;;5.53;4.10;;;;;;;;;;5013345;28;20195;-70
2023/05/18 02:55:24;;;;;;;9.75;3.95;;;;;;;;;;5013000;28;20207;-70
2023/05/18 02:57:55;;;;;;;6.60;4.00;;;;;;;;;;5013216;28;20198;-70
2023/05/18 03:00:23;;;;;;;9.98;3.80;;;;;;;;;;5013400;28;20188;-71
2023/05/18 03:02:50;;;;;;;6.00;3.55;;;;;;;;;;5013259;28;20199;-70
2023/05/18 03:05:22;;;;;;;7.53;3.40;;;;;;;;;;5013216;28;20196;-69
2023/05/18 03:07:51;;;;;;;15.68;4.70;;;;;;;;;;5013060;28;20290;-70
2023/05/18 03:10:19;;;;;;;7.70;3.90;;;;;;;;;;5013368;28;20201;-69
2023/05/18 03:12:47;;;;;;;5.10;3.95;;;;;;;;;;5013250;28;20198;-70
2023/05/18 03:15:15;;;;;;;9.27;3.53;;;;;;;;;;5013610;28;20202;-70
2023/05/18 03:17:42;;;;;;;6.70;4.05;;;;;;;;;;5013347;28;20606;-70
2023/05/18 03:20:10;;;;;;;13.93;3.95;;;;;;;;;;5013356;28;20200;-70
2023/05/18 03:22:37;;;;;;;6.43;4.22;;;;;;;;;;5012676;28;20197;-70
2023/05/18 03:25:05;;;;;;;4.93;3.65;;;;;;;;;;5012989;28;20573;-70
2023/05/18 03:27:33;;;;;;;11.10;6.60;;;;;;;;;;5013321;28;20219;-69
2023/05/18 03:30:00;;;;;;;7.35;4.35;;;;;;;;;;5012882;28;20199;-70
2023/05/18 03:32:30;;;;;;;6.50;5.10;;;;;;;;;;5012751;28;20211;-69
2023/05/18 03:34:59;;;;;;;8.55;4.20;;;;;;;;;;5013136;28;20196;-69
2023/05/18 03:37:27;;;;;;;6.05;4.45;;;;;;;;;;5013615;28;20548;-69
2023/05/18 03:39:55;;;;;;;10.63;4.35;;;;;;;;;;5013101;28;20226;-69
2023/05/18 03:42:22;;;;;;;7.65;4.50;;;;;;;;;;5012772;28;20184;-69
2023/05/18 03:44:51;;;;;;;12.18;4.93;;;;;;;;;;5012754;28;20203;-70
2023/05/18 03:47:18;;;;;;;10.88;4.57;;;;;;;;;;5013038;28;20706;-69
2023/05/18 03:49:45;;;;;;;9.25;5.25;;;;;;;;;;5013100;28;20196;-69
2023/05/18 03:52:14;;;;;;;5.65;4.00;;;;;;;;;;5013124;28;20196;-70
2023/05/18 03:54:42;;;;;;;10.15;4.90;;;;;;;;;;5013050;28;20293;-69
2023/05/18 03:57:10;;;;;;;10.98;4.75;;;;;;;;;;5013227;28;20211;-69
2023/05/18 03:59:37;;;;;;;8.18;4.13;;;;;;;;;;5012987;28;20206;-69
2023/05/18 04:02:06;;;;;;;10.25;4.53;;;;;;;;;;5012711;28;20192;-70
2023/05/18 04:04:33;;;;;;;7.63;4.40;;;;;;;;;;5012267;28;20441;-70
2023/05/18 04:07:01;;;;;;;12.05;4.90;;;;;;;;;;5013900;28;20227;-69
2023/05/18 04:09:28;;;;;;;12.30;5.50;;;;;;;;;;5016179;28;20207;-69
2023/05/18 04:11:55;;;;;;;9.68;5.47;;;;;;;;;;5016024;28;20207;-69
2023/05/18 04:14:23;;;;;;;11.73;4.75;;;;;;;;;;5016205;28;20649;-70
2023/05/18 04:16:51;;;;;;;8.45;4.40;;;;;;;;;;5016407;28;20245;-69
2023/05/18 04:19:20;;;;;;;11.05;5.03;;;;;;;;;;5016027;28;20733;-69
2023/05/18 04:21:47;;;;;;;9.55;4.88;;;;;;;;;;5015935;28;20196;-69
2023/05/18 04:24:15;;;;;;;9.43;5.50;;;;;;;;;;5015684;28;20203;-69
2023/05/18 04:26:42;;;;;;;10.38;5.57;;;;;;;;;;5015642;28;20679;-69
2023/05/18 04:29:12;;;;;;;10.60;4.88;;;;;;;;;;5015612;28;20196;-70
2023/05/18 04:31:43;;;;;;;10.40;4.65;;;;;;;;;;5015160;28;20673;-69
2023/05/18 04:34:12;;;;;;;9.85;4.85;;;;;;;;;;5015958;28;20197;-69
2023/05/18 04:36:42;;;;;;;8.90;5.53;;;;;;;;;;5015628;28;20233;-70
2023/05/18 04:39:10;;;;;;;15.18;4.93;;;;;;;;;;5016213;28;20231;-69
2023/05/18 04:41:41;;;;;;;7.82;3.95;;;;;;;;;;5015648;28;20198;-74
2023/05/18 04:44:08;;;;;;;8.55;4.65;;;;;;;;;;5015243;28;20668;-69
2023/05/18 04:46:38;;;;;;;11.13;6.70;;;;;;;;;;5015634;28;20223;-69
2023/05/18 04:49:05;;;;;;;10.60;5.05;;;;;;;;;;5015603;28;20234;-70
2023/05/18 04:51:33;;;;;;;15.10;5.50;;;;;;;;;;5015469;28;20225;-69
2023/05/18 04:54:02;;;;;;;6.72;4.45;;;;;;;;;;5015479;28;20257;-70
2023/05/18 04:56:29;;;;;;;10.75;5.05;;;;;;;;;;5014833;28;20200;-71
2023/05/18 04:58:58;;;;;;;4.72;3.40;;;;;;;;;;5015382;28;20200;-69
2023/05/18 05:01:25;;;;;;;9.25;4.93;;;;;;;;;;5015326;28;20224;-70
2023/05/18 05:03:52;;;;;;;12.35;4.63;;;;;;;;;;5014982;28;20196;-71
2023/05/18 05:06:20;;;;;;;7.90;4.50;;;;;;;;;;5014841;28;20275;-69
2023/05/18 05:08:47;;;;;;;12.48;4.70;;;;;;;;;;5015135;28;20199;-70
2023/05/18 05:11:15;;;;;;;9.98;4.75;;;;;;;;;;5015496;28;20258;-69
2023/05/18 05:13:43;;;;;;;10.82;5.40;;;;;;;;;;5014774;28;20200;-69
2023/05/18 05:16:10;;;;;;;9.00;4.25;;;;;;;;;;5014955;28;20200;-69
2023/05/18 05:18:37;;;;;;;13.30;4.90;;;;;;;;;;5014131;28;20199;-75
2023/05/18 05:21:05;;;;;;;8.48;3.88;;;;;;;;;;5015299;28;20191;-68
2023/05/18 05:23:32;;;;;;;5.53;4.28;;;;;;;;;;5014764;28;20609;-69
2023/05/18 05:25:59;;;;;;;7.55;4.30;;;;;;;;;;5014707;28;20199;-68
2023/05/18 05:28:28;;;;;;;5.40;3.88;;;;;;;;;;5015046;28;20224;-68
2023/05/18 05:30:55;;;;;;;8.05;4.43;;;;;;;;;;5014993;28;20196;-68
2023/05/18 05:33:22;;;;;;;9.13;4.60;;;;;;;;;;5014443;28;20205;-68
2023/05/18 05:35:49;;;;;;;9.90;4.72;;;;;;;;;;5014371;28;20192;-68
2023/05/18 05:38:16;;;;;;;10.68;4.68;;;;;;;;;;5014840;28;20227;-68
2023/05/18 05:40:43;;;;;;;8.60;4.45;;;;;;;;;;5014909;28;20207;-68
2023/05/18 05:43:11;;;;;;;12.98;4.75;;;;;;;;;;5014414;28;20195;-68
2023/05/18 05:45:41;;;;;;;9.65;5.13;;;;;;;;;;5013849;28;20200;-68
2023/05/18 05:48:08;;;;;;;8.48;4.10;;;;;;;;;;5014407;28;20677;-68
2023/05/18 05:50:36;;;;;;;9.40;4.65;;;;;;;;;;5014734;28;20192;-68
2023/05/18 05:53:03;;;;;;;6.70;4.07;;;;;;;;;;5014143;28;20296;-68
2023/05/18 05:55:30;;;;;;;13.07;5.00;;;;;;;;;;5014233;28;20668;-68
2023/05/18 05:57:57;;;;;;;6.05;3.58;;;;;;;;;;5014406;28;20200;-68
2023/05/18 06:00:26;;;;;;;15.10;5.10;;;;;;;;;;5014559;28;20226;-68
2023/05/18 06:02:55;;;;;;;12.50;4.00;;;;;;;;;;5014402;28;20222;-68
2023/05/18 06:05:22;;;;;;;10.07;3.60;;;;;;;;;;5014061;28;20204;-68
2023/05/18 06:07:49;;;;;;;11.23;4.47;;;;;;;;;;5014449;28;20216;-68
2023/05/18 06:10:17;;;;;;;8.55;4.25;;;;;;;;;;5014420;28;20204;-68
2023/05/18 06:12:44;;;;;;;11.27;3.90;;;;;;;;;;5013858;28;20300;-68
2023/05/18 06:15:11;;;;;;;11.57;3.92;;;;;;;;;;5014404;28;20222;-68
2023/05/18 06:17:39;;;;;;;7.15;3.63;;;;;;;;;;5013960;28;20203;-68
2023/05/18 06:20:08;;;;;;;11.55;3.80;;;;;;;;;;5014166;28;20299;-68
2023/05/18 06:22:36;;;;;;;11.57;4.10;;;;;;;;;;5013939;28;20270;-68
2023/05/18 06:25:03;;;;;;;9.40;4.10;;;;;;;;;;5013674;28;20192;-68
2023/05/18 06:27:30;;;;;;;5.32;3.60;;;;;;;;;;5013366;28;20311;-68
2023/05/18 06:29:57;;;;;;;8.00;3.90;;;;;;;;;;5013946;28;20200;-68
2023/05/18 06:32:25;;;;;;;7.75;4.03;;;;;;;;;;5013411;28;20207;-68
2023/05/18 06:34:52;;;;;;;5.68;3.67;;;;;;;;;;5013854;28;20290;-68
2023/05/18 06:37:20;;;;;;;10.05;3.60;;;;;;;;;;5013520;28;20574;-68
2023/05/18 06:39:48;;;;;;;6.38;4.10;;;;;;;;;;5013399;28;20240;-69
2023/05/18 06:42:15;;;;;;;6.50;3.67;;;;;;;;;;5013353;28;20200;-69
2023/05/18 06:44:42;;;;;;;7.45;3.67;;;;;;;;;;5013442;28;20257;-69
2023/05/18 06:47:09;;;;;;;7.45;3.97;;;;;;;;;;5013338;28;20227;-68
2023/05/18 06:49:36;;;;;;;10.65;3.60;;;;;;;;;;5013354;28;20203;-68
2023/05/18 06:52:03;;;;;;;7.60;4.50;;;;;;;;;;5014081;28;20536;-68
2023/05/18 06:54:32;;;;;;;12.20;3.65;;;;;;;;;;5013437;28;20196;-68
2023/05/18 06:56:59;;;;;;;8.43;3.95;;;;;;;;;;5013541;28;20201;-68
2023/05/18 06:59:26;;;;;;;9.93;3.72;;;;;;;;;;5013221;28;20232;-69
2023/05/18 07:01:54;;;;;;;11.07;3.80;;;;;;;;;;5014281;28;20200;-68
2023/05/18 07:04:21;;;;;;;10.57;3.90;;;;;;;;;;5012808;28;20450;-69
2023/05/18 07:06:50;;;;;;;7.67;3.70;;;;;;;;;;5012611;28;20680;-68
2023/05/18 07:09:17;;;;;;;7.30;3.60;;;;;;;;;;5013499;28;20533;-68
2023/05/18 07:11:45;;;;;;;14.50;9.48;;;;;;;;;;5013452;28;20450;-68
2023/05/18 07:14:13;;;;;;;14.50;5.60;;;;;;;;;;5012887;28;20196;-68
2023/05/18 07:16:40;;;;;;;7.33;3.97;;;;;;;;;;5013891;28;20538;-68
2023/05/18 07:19:07;;;;;;;7.03;3.27;;;;;;;;;;5013386;28;20455;-68
2023/05/18 07:21:34;;;;;;;15.73;3.67;;;;;;;;;;5013149;28;20447;-69
2023/05/18 07:24:01;;;;;;;7.10;3.60;;;;;;;;;;5012907;28;20439;-68
2023/05/18 07:26:29;;;;;;;8.97;4.50;;;;;;;;;;5012871;28;20445;-68
2023/05/18 07:28:57;;;;;;;8.13;3.80;;;;;;;;;;5013237;28;20817;-68
2023/05/18 07:31:25;;;;;;;11.20;4.57;;;;;;;;;;5013445;28;20458;-68
2023/05/18 07:33:52;;;;;;;10.67;3.50;;;;;;;;;;5012895;28;20534;-68
2023/05/18 07:36:19;;;;;;;11.63;3.70;;;;;;;;;;5013288;28;20795;-68
2023/05/18 07:38:51;;;;;;;15.37;4.80;;;;;;;;;;5012814;28;20467;-68
2023/05/18 07:41:18;;;;;;;11.30;3.50;;;;;;;;;;5013487;28;20523;-68
2023/05/18 07:43:46;;;;;;;12.13;4.05;;;;;;;;;;5016644;28;20455;-68
2023/05/18 07:46:14;;;;;;;7.55;4.10;;;;;;;;;;5016181;28;20654;-68
2023/05/18 07:48:42;;;;;;;6.93;3.47;;;;;;;;;;5016668;28;20728;-68
2023/05/18 07:51:09;;;;;;;7.10;3.50;;;;;;;;;;5017063;28;20443;-68
2023/05/18 07:53:36;;;;;;;10.47;5.50;;;;;;;;;;5016127;28;20940;-69
2023/05/18 07:56:04;;;;;;;12.47;5.23;;;;;;;;;;5016794;28;20505;-68
2023/05/18 07:58:31;;;;;;;4.50;3.47;;;;;;;;;;5016547;28;20451;-68
2023/05/18 08:00:58;;;;;;;13.73;4.57;;;;;;;;;;5016697;28;20459;-68
2023/05/18 08:03:27;;;;;;;9.10;4.23;;;;;;;;;;5016075;28;20929;-69
2023/05/18 08:05:54;;;;;;;8.07;3.63;;;;;;;;;;5015751;28;20454;-68
2023/05/18 08:08:21;;;;;;;8.60;3.60;;;;;;;;;;5016471;28;20501;-68
2023/05/18 08:10:48;;;;;;;12.37;4.87;;;;;;;;;;5016275;28;21020;-68
2023/05/18 08:13:16;;;;;;;9.27;5.23;;;;;;;;;;5016413;28;20527;-69
2023/05/18 08:15:44;;;;;;;9.50;3.63;;;;;;;;;;5015898;28;20442;-68
2023/05/18 08:18:11;;;;;;;8.53;3.90;;;;;;;;;;5016482;28;20444;-69
2023/05/18 08:20:39;;;;;;;6.47;3.17;;;;;;;;;;5015924;28;20447;-68
2023/05/18 08:23:07;;;;;;;6.97;4.67;;;;;;;;;;5016275;28;20447;-68
2023/05/18 08:25:34;;;;;;;7.80;3.50;;;;;;;;;;5015479;28;20479;-68
2023/05/18 08:28:01;;;;;;;11.10;3.70;;;;;;;;;;5015915;28;20566;-68
2023/05/18 08:30:28;;;;;;;10.50;3.33;;;;;;;;;;5016136;28;20453;-68
2023/05/18 08:32:55;;;;;;;8.50;3.70;;;;;;;;;;5016278;28;20443;-68
2023/05/18 08:35:23;;;;;;;5.33;3.50;;;;;;;;;;5015774;28;20437;-68
2023/05/18 08:37:51;;;;;;;10.57;3.70;;;;;;;;;;5016411;28;20461;-68
2023/05/18 08:40:18;;;;;;;8.30;3.47;;;;;;;;;;5016310;28;20762;-68
2023/05/18 08:42:48;;;;;;;7.53;3.87;;;;;;;;;;5015834;28;20451;-68
2023/05/18 08:45:19;;;;;;;11.23;4.00;;;;;;;;;;5015950;28;20771;-68
2023/05/18 08:47:46;;;;;;;8.40;3.50;;;;;;;;;;5016153;28;20953;-68
2023/05/18 08:50:14;;;;;;;12.23;4.10;;;;;;;;;;5015854;28;20447;-68
2023/05/18 08:52:44;;;;;;;5.13;3.40;;;;;;;;;;5015759;28;20869;-68
2023/05/18 08:55:13;;;;;;;8.20;3.13;;;;;;;;;;5015644;28;20458;-68
2023/05/18 08:57:42;;;;;;;7.77;4.13;;;;;;;;;;5016134;28;20443;-68
2023/05/18 09:00:11;;;;;;;9.33;3.70;;;;;;;;;;5015722;28;20453;-68
2023/05/18 09:02:38;;;;;;;6.20;3.57;;;;;;;;;;5015312;28;20451;-68
2023/05/18 09:05:07;;;;;;;7.43;3.47;;;;;;;;;;5015862;28;20443;-68
2023/05/18 09:07:34;;;;;;;8.10;3.90;;;;;;;;;;5015553;28;21028;-68
2023/05/18 09:10:03;;;;;;;15.70;4.17;;;;;;;;;;5015176;28;20431;-67
2023/05/18 09:12:33;;;;;;;8.93;3.50;;;;;;;;;;5015271;28;20447;-68
2023/05/18 09:15:01;;;;;;;9.13;3.77;;;;;;;;;;5015726;28;20453;-67
2023/05/18 09:17:28;;;;;;;10.10;3.70;;;;;;;;;;5014417;28;20530;-68
2023/05/18 09:19:55;;;;;;;7.23;3.10;;;;;;;;;;5014317;28;20951;-69
2023/05/18 09:22:22;;;;;;;8.70;3.80;;;;;;;;;;5014929;28;20439;-67
2023/05/18 09:24:49;;;;;;;4.30;3.30;;;;;;;;;;5015124;28;20448;-68
2023/05/18 09:27:17;;;;;;;9.30;3.50;;;;;;;;;;5014819;28;20482;-68
2023/05/18 09:29:53;;;;;;;7.00;3.03;;;;;;;;;;5015031;28;20503;-68
2023/05/18 09:32:21;;;;;;;8.90;3.23;;;;;;;;;;5015191;28;20427;-68
2023/05/18 09:34:48;;;;;;;11.03;3.73;;;;;;;;;;5015074;28;20443;-68
2023/05/18 09:37:17;;;;;;;7.67;4.00;;;;;;;;;;5014379;28;20467;-68
2023/05/18 09:39:44;;;;;;;13.37;4.10;;;;;;;;;;5014156;28;20494;-68
2023/05/18 09:42:12;;;;;;;7.87;3.77;;;;;;;;;;5014577;28;20448;-68
2023/05/18 09:44:39;;;;;;;6.53;3.13;;;;;;;;;;5014795;28;20507;-68
2023/05/18 09:47:10;;;;;;;13.03;4.10;;;;;;;;;;5014576;28;20440;-68
2023/05/18 09:49:37;;;;;;;23.00;6.80;;;;;;;;;;5014901;28;20492;-68
2023/05/18 09:52:09;;;;;;;10.07;3.60;;;;;;;;;;5014924;28;20444;-68
2023/05/18 09:54:37;;;;;;;9.50;3.30;;;;;;;;;;5014621;28;20420;-68
2023/05/18 09:57:05;;;;;;;9.40;3.60;;;;;;;;;;5013837;28;20480;-69
2023/05/18 09:59:35;;;;;;;8.10;4.30;;;;;;;;;;5013725;28;20803;-69
2023/05/18 10:02:04;;;;;;;5.67;3.30;;;;;;;;;;5013757;28;20457;-68
2023/05/18 10:04:39;;;;;;;5.53;4.20;;;;;;;;;;5014139;28;20441;-68
2023/05/18 10:07:11;;;;;;;8.03;4.33;;;;;;;;;;5014447;28;20439;-68
2023/05/18 10:09:39;;;;;;;15.77;5.40;;;;;;;;;;5014371;28;20482;-69
2023/05/18 10:12:10;;;;;;;8.10;3.90;;;;;;;;;;5014232;28;20439;-68
2023/05/18 10:14:44;;;;;;;6.97;3.40;;;;;;;;;;5014444;28;20437;-68
2023/05/18 10:17:12;;;;;;;9.17;4.00;;;;;;;;;;5013968;28;20516;-68
2023/05/18 10:19:41;;;;;;;9.87;3.90;;;;;;;;;;5013270;28;20449;-68
2023/05/18 10:22:09;;;;;;;7.70;4.10;;;;;;;;;;5013291;28;20534;-68
2023/05/18 10:24:39;;;;;;;7.13;3.60;;;;;;;;;;5013859;28;20445;-67
2023/05/18 10:27:08;;;;;;;7.77;3.57;;;;;;;;;;5013943;28;20459;-67
2023/05/18 10:29:36;;;;;;;7.70;3.77;;;;;;;;;;5013689;28;20484;-68
2023/05/18 10:32:04;;;;;;;13.27;4.20;;;;;;;;;;5013527;28;20449;-67
2023/05/18 10:34:32;;;;;;;12.30;7.70;;;;;;;;;;5013936;28;20455;-68
2023/05/18 10:37:03;;;;;;;9.73;4.10;;;;;;;;;;5013708;28;20449;-68
2023/05/18 10:39:31;;;;;;;7.00;3.23;;;;;;;;;;5012736;28;20480;-68
2023/05/18 10:41:59;;;;;;;5.70;3.50;;;;;;;;;;5013376;28;20519;-67
2023/05/18 10:44:27;;;;;;;7.87;4.20;;;;;;;;;;5013580;28;20443;-67
2023/05/18 10:46:54;;;;;;;10.33;4.07;;;;;;;;;;5013271;28;21031;-68
2023/05/18 10:49:24;;;;;;;6.70;3.77;;;;;;;;;;5013743;28;20587;-68
2023/05/18 10:51:53;;;;;;;6.47;3.87;;;;;;;;;;5013696;28;20444;-68
2023/05/18 10:54:22;;;;;;;11.13;3.63;;;;;;;;;;5013417;28;20502;-68
2023/05/18 10:56:52;;;;;;;5.67;3.30;;;;;;;;;;5013570;28;20456;-67
2023/05/18 10:59:21;;;;;;;4.73;3.70;;;;;;;;;;5013018;28;20547;-68
2023/05/18 11:01:50;;;;;;;4.30;3.60;;;;;;;;;;5012545;28;20947;-68
2023/05/18 11:04:22;;;;;;;8.53;4.70;;;;;;;;;;5013604;28;20445;-68
2023/05/18 11:06:55;;;;;;;5.73;3.30;;;;;;;;;;5012985;28;20448;-68
2023/05/18 11:09:25;;;;;;;6.63;4.10;;;;;;;;;;5013075;28;20567;-68
2023/05/18 11:11:52;;;;;;;9.40;3.60;;;;;;;;;;5013401;28;20453;-68
2023/05/18 11:14:26;;;;;;;11.00;5.40;;;;;;;;;;5013145;28;20446;-68
2023/05/18 11:16:53;;;;;;;9.87;3.63;;;;;;;;;;5015117;28;20488;-68
2023/05/18 11:19:26;;;;;;;5.00;3.00;;;;;;;;;;5017314;28;20451;-68
2023/05/18 11:21:54;;;;;;;8.93;3.60;;;;;;;;;;5017168;28;20430;-68
2023/05/18 11:24:22;;;;;;;9.00;3.80;;;;;;;;;;5017510;28;20435;-68
2023/05/18 11:26:52;;;;;;;14.50;4.23;;;;;;;;;;5017333;28;20453;-68
2023/05/18 11:29:20;;;;;;;9.03;4.03;;;;;;;;;;5017261;28;20490;-68
2023/05/18 11:31:48;;;;;;;7.57;3.60;;;;;;;;;;5017338;28;20531;-68
2023/05/18 11:34:34;;;;;;;6.10;3.80;;;;;;;;;;5017030;28;20521;-68
2023/05/18 11:37:01;;;;;;;9.27;3.33;;;;;;;;;;5017040;28;20983;-68
2023/05/18 11:39:28;;;;;;;10.20;3.80;;;;;;;;;;5017282;28;20502;-68
2023/05/18 11:42:01;;;;;;;10.17;3.70;;;;;;;;;;5017109;28;20520;-68
2023/05/18 11:44:29;;;;;;;15.97;4.63;;;;;;;;;;5017400;28;20430;-68
2023/05/18 11:47:00;;;;;;;9.13;3.47;;;;;;;;;;5017048;28;20445;-68
2023/05/18 11:49:28;;;;;;;8.43;3.70;;;;;;;;;;5017489;28;20477;-68
2023/05/18 11:51:56;;;;;;;7.67;3.63;;;;;;;;;;5017048;28;20553;-68
2023/05/18 11:54:24;;;;;;;8.57;3.53;;;;;;;;;;5017009;28;20441;-68
2023/05/18 11:56:53;;;;;;;11.70;4.87;;;;;;;;;;5017104;28;20500;-68
2023/05/18 11:59:31;;;;;;;6.13;4.20;;;;;;;;;;5016544;28;20460;-68
2023/05/18 12:02:00;;;;;;;8.47;4.20;;;;;;;;;;5016488;28;20433;-68
2023/05/18 12:04:28;;;;;;;10.67;4.20;;;;;;;;;;5017392;28;20438;-68
2023/05/18 12:06:57;;;;;;;7.50;4.67;;;;;;;;;;5016660;28;20458;-67
2023/05/18 12:09:24;;;;;;;9.10;3.60;;;;;;;;;;5016562;28;20562;-66
2023/05/18 12:11:52;;;;;;;9.73;3.70;;;;;;;;;;5016269;28;21042;-68
2023/05/18 12:14:20;;;;;;;13.03;5.10;;;;;;;;;;5017214;28;20444;-66
2023/05/18 12:16:49;;;;;;;9.97;3.70;;;;;;;;;;5016497;28;20440;-67
2023/05/18 12:19:18;;;;;;;6.33;3.57;;;;;;;;;;5016270;28;20488;-67
2023/05/18 12:21:46;;;;;;;25.83;4.53;;;;;;;;;;5014710;28;21019;-67
2023/05/18 12:24:13;;;;;;;7.70;3.33;;;;;;;;;;5015240;28;20441;-67
2023/05/18 12:26:41;;;;;;;6.27;3.87;;;;;;;;;;5015557;28;20469;-67
2023/05/18 12:29:10;;;;;;;6.80;3.70;;;;;;;;;;5014784;28;20483;-66
2023/05/18 12:31:41;;;;;;;7.97;4.53;;;;;;;;;;5016020;28;20446;-66
2023/05/18 12:34:11;;;;;;;6.83;3.67;;;;;;;;;;5016126;28;20434;-66
2023/05/18 12:36:43;;;;;;;8.03;3.77;;;;;;;;;;5015980;28;20453;-66
2023/05/18 12:39:10;;;;;;;10.77;4.07;;;;;;;;;;5015429;28;20998;-66
2023/05/18 12:41:38;;;;;;;7.00;4.80;;;;;;;;;;5015923;28;20826;-66
2023/05/18 12:44:06;;;;;;;10.20;4.13;;;;;;;;;;5015486;28;20750;-66
2023/05/18 12:46:33;;;;;;;13.30;5.70;;;;;;;;;;5015284;28;20453;-66
2023/05/18 12:49:03;;;;;;;7.10;3.60;;;;;;;;;;5015166;28;20523;-67
2023/05/18 12:51:34;;;;;;;11.40;4.30;;;;;;;;;;5015082;28;20440;-66
2023/05/18 12:54:02;;;;;;;8.83;4.70;;;;;;;;;;5015801;28;20809;-66
2023/05/18 12:56:50;;;;;;;10.83;3.87;;;;;;;;;;5015651;28;20537;-66
2023/05/18 12:59:18;;;;;;;10.90;4.40;;;;;;;;;;5015424;28;20472;-65
2023/05/18 13:01:45;;;;;;;10.40;3.87;;;;;;;;;;5015622;28;20450;-66
2023/05/18 13:04:12;;;;;;;11.43;6.17;;;;;;;;;;5015470;28;20447;-66
2023/05/18 13:06:42;;;;;;;6.73;4.10;;;;;;;;;;5014654;28;20469;-66
2023/05/18 13:09:09;;;;;;;10.50;4.80;;;;;;;;;;5014572;28;20557;-67
2023/05/18 13:11:36;;;;;;;16.60;6.80;;;;;;;;;;5014973;28;21002;-66
2023/05/18 13:14:04;;;;;;;13.53;6.90;;;;;;;;;;5015244;28;20451;-66
2023/05/18 13:16:32;;;;;;;16.13;7.90;;;;;;;;;;5014867;28;21014;-68
2023/05/18 13:18:59;;;;;;;11.37;6.10;;;;;;;;;;5015232;28;20458;-66
2023/05/18 13:21:27;;;;;;;10.00;4.70;;;;;;;;;;5015048;28;20452;-66
2023/05/18 13:23:55;;;;;;;11.10;4.90;;;;;;;;;;5014756;28;20449;-68
2023/05/18 13:26:23;;;;;;;17.13;11.37;;;;;;;;;;5014769;28;20870;-66
2023/05/18 13:28:51;;;;;;;18.83;9.40;;;;;;;;;;5014280;28;20449;-68
2023/05/18 13:31:18;;;;;;;11.73;7.03;;;;;;;;;;5014668;28;20491;-66
2023/05/18 13:33:46;;;;;;;9.97;5.63;;;;;;;;;;5014491;28;20456;-66
2023/05/18 13:36:13;;;;;;;6.27;3.20;;;;;;;;;;5014901;28;20446;-66
2023/05/18 13:38:41;;;;;;;4.93;3.37;;;;;;;;;;5013773;28;20478;-66
2023/05/18 13:41:10;;;;;;;11.83;9.27;;;;;;;;;;5014737;28;20443;-66
2023/05/18 13:43:37;;;;;;;29.13;17.10;;;;;;;;;;5014768;28;20442;-66
2023/05/18 13:46:04;;;;;;;11.60;7.70;;;;;;;;;;5014530;28;20456;-67
2023/05/18 13:48:32;;;;;;;11.33;6.93;;;;;;;;;;5013559;28;20456;-66
2023/05/18 13:50:59;;;;;;;9.30;5.10;;;;;;;;;;5013794;28;20672;-66
2023/05/18 13:53:26;;;;;;;4.70;3.17;;;;;;;;;;5014259;28;20457;-66
2023/05/18 13:55:54;;;;;;;8.90;4.60;;;;;;;;;;5014582;28;20445;-67
2023/05/18 13:58:22;;;;;;;9.10;4.10;;;;;;;;;;5014108;28;20450;-66
2023/05/18 14:00:52;;;;;;;8.43;3.90;;;;;;;;;;5014240;28;20451;-66
2023/05/18 14:03:19;;;;;;;8.80;5.10;;;;;;;;;;5014263;28;20478;-66
2023/05/18 14:05:47;;;;;;;6.30;3.50;;;;;;;;;;5014058;28;20451;-66
2023/05/18 14:08:14;;;;;;;8.97;4.10;;;;;;;;;;5013660;28;20447;-67
2023/05/18 14:10:41;;;;;;;6.10;3.37;;;;;;;;;;5013794;28;20567;-66
2023/05/18 14:13:08;;;;;;;7.87;4.30;;;;;;;;;;5014228;28;20471;-66
2023/05/18 14:15:37;;;;;;;21.60;5.57;;;;;;;;;;5013775;28;20435;-67
2023/05/18 14:18:04;;;;;;;8.27;4.80;;;;;;;;;;5013860;28;20446;-66
2023/05/18 14:20:32;;;;;;;13.20;6.40;;;;;;;;;;5014141;28;20459;-66
2023/05/18 14:22:59;;;;;;;7.13;5.17;;;;;;;;;;5014067;28;20552;-66
2023/05/18 14:25:26;;;;;;;8.00;4.83;;;;;;;;;;5014054;28;20458;-66
2023/05/18 14:27:54;;;;;;;14.10;7.90;;;;;;;;;;5013001;28;20449;-66
2023/05/18 14:30:21;;;;;;;13.57;5.13;;;;;;;;;;5012947;28;21001;-66
2023/05/18 14:32:49;;;;;;;11.03;6.60;;;;;;;;;;5013515;28;20455;-66
2023/05/18 14:35:16;;;;;;;6.23;4.00;;;;;;;;;;5013776;28;20518;-67
2023/05/18 14:37:44;;;;;;;9.20;4.67;;;;;;;;;;5013712;28;20466;-67
2023/05/18 14:40:11;;;;;;;9.60;3.80;;;;;;;;;;5013368;28;20490;-67
2023/05/18 14:42:38;;;;;;;11.23;5.50;;;;;;;;;;5013686;28;20486;-67
2023/05/18 14:45:06;;;;;;;7.47;3.30;;;;;;;;;;5013280;28;20450;-67